sensor_id;sensor_type;location;lat;lon;timestamp;P1;durP1;ratioP1;P2;durP2;ratioP2
34290;SDS011;20553;47.544;7.586;2022-08-18T00:02:37;7.10;;;6.40;;
34290;SDS011;20553;47.544;7.586;2022-08-18T00:07:52;7.75;;;7.03;;
34290;SDS011;20553;47.544;7.586;2022-08-18T00:12:58;8.70;;;7.50;;
34290;SDS011;20553;47.544;7.586;2022-08-18T00:18:03;9.50;;;8.23;;
34290;SDS011;20553;47.544;7.586;2022-08-18T00:23:07;9.70;;;8.70;;
34290;SDS011;20553;47.544;7.586;2022-08-18T00:28:13;10.87;;;8.97;;
34290;SDS011;20553;47.544;7.586;2022-08-18T00:33:17;12.02;;;8.93;;
34290;SDS011;20553;47.544;7.586;2022-08-18T00:38:22;13.33;;;11.10;;
34290;SDS011;20553;47.544;7.586;2022-08-18T00:43:30;9.52;;;8.52;;
34290;SDS011;20553;47.544;7.586;2022-08-18T00:48:42;10.07;;;8.45;;
34290;SDS011;20553;47.544;7.586;2022-08-18T00:53:51;16.83;;;12.63;;
34290;SDS011;20553;47.544;7.586;2022-08-18T00:59:06;15.90;;;11.77;;
34290;SDS011;20553;47.544;7.586;2022-08-18T01:04:17;17.63;;;13.27;;
34290;SDS011;20553;47.544;7.586;2022-08-18T01:09:28;21.48;;;14.52;;
34290;SDS011;20553;47.544;7.586;2022-08-18T01:14:34;16.80;;;11.87;;
34290;SDS011;20553;47.544;7.586;2022-08-18T01:19:40;17.83;;;11.90;;
34290;SDS011;20553;47.544;7.586;2022-08-18T01:25:04;18.73;;;14.50;;
34290;SDS011;20553;47.544;7.586;2022-08-18T01:30:29;14.88;;;12.82;;
34290;SDS011;20553;47.544;7.586;2022-08-18T01:35:47;19.10;;;14.13;;
34290;SDS011;20553;47.544;7.586;2022-08-18T01:40:53;17.70;;;13.43;;
34290;SDS011;20553;47.544;7.586;2022-08-18T01:46:18;17.75;;;12.50;;
34290;SDS011;20553;47.544;7.586;2022-08-18T01:51:24;12.65;;;10.52;;
34290;SDS011;20553;47.544;7.586;2022-08-18T01:56:43;13.10;;;10.77;;
34290;SDS011;20553;47.544;7.586;2022-08-18T02:01:49;11.18;;;9.38;;
34290;SDS011;20553;47.544;7.586;2022-08-18T02:06:57;12.30;;;9.70;;
34290;SDS011;20553;47.544;7.586;2022-08-18T02:12:07;8.57;;;7.60;;
34290;SDS011;20553;47.544;7.586;2022-08-18T02:17:12;15.07;;;11.82;;
34290;SDS011;20553;47.544;7.586;2022-08-18T02:22:18;16.02;;;12.52;;
34290;SDS011;20553;47.544;7.586;2022-08-18T02:27:25;14.25;;;12.07;;
34290;SDS011;20553;47.544;7.586;2022-08-18T02:32:31;18.17;;;13.35;;
34290;SDS011;20553;47.544;7.586;2022-08-18T02:37:36;17.25;;;13.70;;
34290;SDS011;20553;47.544;7.586;2022-08-18T02:42:45;15.77;;;12.02;;
34290;SDS011;20553;47.544;7.586;2022-08-18T02:47:51;11.25;;;9.43;;
34290;SDS011;20553;47.544;7.586;2022-08-18T02:52:56;13.73;;;10.23;;
34290;SDS011;20553;47.544;7.586;2022-08-18T02:58:03;16.50;;;13.55;;
34290;SDS011;20553;47.544;7.586;2022-08-18T03:03:07;22.10;;;16.17;;
34290;SDS011;20553;47.544;7.586;2022-08-18T03:08:12;23.80;;;16.27;;
34290;SDS011;20553;47.544;7.586;2022-08-18T03:13:18;20.55;;;15.20;;
34290;SDS011;20553;47.544;7.586;2022-08-18T03:18:22;13.80;;;10.97;;
34290;SDS011;20553;47.544;7.586;2022-08-18T03:23:27;11.18;;;9.77;;
34290;SDS011;20553;47.544;7.586;2022-08-18T03:28:33;22.52;;;15.85;;
34290;SDS011;20553;47.544;7.586;2022-08-18T03:33:38;22.73;;;14.17;;
34290;SDS011;20553;47.544;7.586;2022-08-18T03:38:44;11.27;;;10.03;;
34290;SDS011;20553;47.544;7.586;2022-08-18T03:43:57;11.73;;;9.27;;
34290;SDS011;20553;47.544;7.586;2022-08-18T03:49:05;13.03;;;10.97;;
34290;SDS011;20553;47.544;7.586;2022-08-18T03:54:10;10.02;;;8.82;;
34290;SDS011;20553;47.544;7.586;2022-08-18T03:59:19;16.95;;;12.82;;
34290;SDS011;20553;47.544;7.586;2022-08-18T04:04:26;17.47;;;15.20;;
34290;SDS011;20553;47.544;7.586;2022-08-18T04:09:32;16.55;;;13.60;;
34290;SDS011;20553;47.544;7.586;2022-08-18T04:14:40;12.35;;;10.73;;
34290;SDS011;20553;47.544;7.586;2022-08-18T04:19:47;14.73;;;11.02;;
34290;SDS011;20553;47.544;7.586;2022-08-18T04:24:53;19.80;;;13.80;;
34290;SDS011;20553;47.544;7.586;2022-08-18T04:30:00;21.40;;;14.70;;
34290;SDS011;20553;47.544;7.586;2022-08-18T04:35:06;19.23;;;14.25;;
34290;SDS011;20553;47.544;7.586;2022-08-18T04:40:16;21.40;;;15.15;;
34290;SDS011;20553;47.544;7.586;2022-08-18T04:45:27;19.38;;;15.40;;
34290;SDS011;20553;47.544;7.586;2022-08-18T04:50:34;20.43;;;15.90;;
34290;SDS011;20553;47.544;7.586;2022-08-18T04:55:44;22.88;;;14.77;;
34290;SDS011;20553;47.544;7.586;2022-08-18T05:00:57;30.80;;;16.33;;
34290;SDS011;20553;47.544;7.586;2022-08-18T05:06:04;14.93;;;12.35;;
34290;SDS011;20553;47.544;7.586;2022-08-18T05:11:09;14.63;;;11.57;;
34290;SDS011;20553;47.544;7.586;2022-08-18T05:16:15;14.93;;;11.60;;
34290;SDS011;20553;47.544;7.586;2022-08-18T05:21:29;17.77;;;13.37;;
34290;SDS011;20553;47.544;7.586;2022-08-18T05:26:38;23.15;;;14.52;;
34290;SDS011;20553;47.544;7.586;2022-08-18T05:31:44;12.60;;;10.80;;
34290;SDS011;20553;47.544;7.586;2022-08-18T05:36:55;12.53;;;10.43;;
34290;SDS011;20553;47.544;7.586;2022-08-18T05:42:13;11.93;;;9.82;;
34290;SDS011;20553;47.544;7.586;2022-08-18T05:47:24;27.35;;;15.15;;
34290;SDS011;20553;47.544;7.586;2022-08-18T05:52:32;19.20;;;13.73;;
34290;SDS011;20553;47.544;7.586;2022-08-18T05:57:42;13.65;;;12.25;;
34290;SDS011;20553;47.544;7.586;2022-08-18T06:02:57;14.38;;;12.88;;
34290;SDS011;20553;47.544;7.586;2022-08-18T06:08:12;14.00;;;12.20;;
34290;SDS011;20553;47.544;7.586;2022-08-18T06:13:19;15.00;;;12.10;;
34290;SDS011;20553;47.544;7.586;2022-08-18T06:18:29;17.30;;;14.03;;
34290;SDS011;20553;47.544;7.586;2022-08-18T06:23:47;14.20;;;12.73;;
34290;SDS011;20553;47.544;7.586;2022-08-18T06:29:11;14.65;;;13.10;;
34290;SDS011;20553;47.544;7.586;2022-08-18T06:34:36;14.60;;;13.10;;
34290;SDS011;20553;47.544;7.586;2022-08-18T06:39:55;15.32;;;13.77;;
34290;SDS011;20553;47.544;7.586;2022-08-18T06:45:01;13.57;;;12.27;;
34290;SDS011;20553;47.544;7.586;2022-08-18T06:50:17;14.32;;;12.85;;
34290;SDS011;20553;47.544;7.586;2022-08-18T06:55:33;13.00;;;11.80;;
34290;SDS011;20553;47.544;7.586;2022-08-18T07:00:41;11.98;;;10.90;;
34290;SDS011;20553;47.544;7.586;2022-08-18T07:06:01;11.73;;;10.63;;
34290;SDS011;20553;47.544;7.586;2022-08-18T07:11:12;13.13;;;11.73;;
34290;SDS011;20553;47.544;7.586;2022-08-18T07:16:23;13.27;;;11.98;;
34290;SDS011;20553;47.544;7.586;2022-08-18T07:22:01;13.95;;;12.48;;
34290;SDS011;20553;47.544;7.586;2022-08-18T07:27:10;13.40;;;12.10;;
34290;SDS011;20553;47.544;7.586;2022-08-18T07:32:19;12.85;;;11.55;;
34290;SDS011;20553;47.544;7.586;2022-08-18T07:37:30;12.18;;;10.98;;
34290;SDS011;20553;47.544;7.586;2022-08-18T07:42:45;13.95;;;12.65;;
34290;SDS011;20553;47.544;7.586;2022-08-18T07:48:05;11.90;;;10.80;;
34290;SDS011;20553;47.544;7.586;2022-08-18T07:53:40;13.23;;;12.02;;
34290;SDS011;20553;47.544;7.586;2022-08-18T07:58:59;12.32;;;11.23;;
34290;SDS011;20553;47.544;7.586;2022-08-18T08:04:16;10.98;;;9.98;;
34290;SDS011;20553;47.544;7.586;2022-08-18T08:09:42;10.68;;;9.77;;
34290;SDS011;20553;47.544;7.586;2022-08-18T08:15:00;10.23;;;9.33;;
34290;SDS011;20553;47.544;7.586;2022-08-18T08:20:28;9.50;;;8.70;;
34290;SDS011;20553;47.544;7.586;2022-08-18T08:25:49;9.50;;;8.60;;
34290;SDS011;20553;47.544;7.586;2022-08-18T08:31:21;8.93;;;8.13;;
34290;SDS011;20553;47.544;7.586;2022-08-18T08:36:52;9.82;;;8.90;;
34290;SDS011;20553;47.544;7.586;2022-08-18T08:42:08;8.77;;;8.00;;
34290;SDS011;20553;47.544;7.586;2022-08-18T08:47:35;9.13;;;8.23;;
34290;SDS011;20553;47.544;7.586;2022-08-18T08:52:48;8.95;;;8.15;;
34290;SDS011;20553;47.544;7.586;2022-08-18T08:58:02;9.27;;;8.48;;
34290;SDS011;20553;47.544;7.586;2022-08-18T09:03:35;8.35;;;7.65;;
34290;SDS011;20553;47.544;7.586;2022-08-18T09:09:00;7.90;;;7.20;;
34290;SDS011;20553;47.544;7.586;2022-08-18T09:14:35;7.85;;;7.15;;
34290;SDS011;20553;47.544;7.586;2022-08-18T09:20:14;7.57;;;6.97;;
34290;SDS011;20553;47.544;7.586;2022-08-18T09:25:43;6.88;;;6.28;;
34290;SDS011;20553;47.544;7.586;2022-08-18T09:36:24;6.43;;;5.93;;
34290;SDS011;20553;47.544;7.586;2022-08-18T09:41:52;5.80;;;5.32;;
34290;SDS011;20553;47.544;7.586;2022-08-18T09:47:02;5.43;;;5.03;;
34290;SDS011;20553;47.544;7.586;2022-08-18T10:03:28;5.27;;;4.80;;
34290;SDS011;20553;47.544;7.586;2022-08-18T10:20:40;4.28;;;3.97;;
34290;SDS011;20553;47.544;7.586;2022-08-18T10:25:59;4.70;;;4.30;;
34290;SDS011;20553;47.544;7.586;2022-08-18T10:31:12;5.25;;;4.75;;
34290;SDS011;20553;47.544;7.586;2022-08-18T10:36:34;5.65;;;5.13;;
34290;SDS011;20553;47.544;7.586;2022-08-18T10:41:51;4.63;;;4.23;;
34290;SDS011;20553;47.544;7.586;2022-08-18T10:47:07;5.30;;;4.90;;
34290;SDS011;20553;47.544;7.586;2022-08-18T10:58:35;5.10;;;4.70;;
34290;SDS011;20553;47.544;7.586;2022-08-18T11:04:02;4.80;;;4.40;;
34290;SDS011;20553;47.544;7.586;2022-08-18T11:09:31;5.70;;;4.97;;
34290;SDS011;20553;47.544;7.586;2022-08-18T11:15:00;5.35;;;4.85;;
34290;SDS011;20553;47.544;7.586;2022-08-18T11:20:26;5.50;;;5.00;;
34290;SDS011;20553;47.544;7.586;2022-08-18T11:25:36;5.33;;;4.83;;
34290;SDS011;20553;47.544;7.586;2022-08-18T11:30:45;5.67;;;5.17;;
34290;SDS011;20553;47.544;7.586;2022-08-18T11:35:55;5.75;;;5.10;;
34290;SDS011;20553;47.544;7.586;2022-08-18T11:41:12;4.25;;;3.92;;
34290;SDS011;20553;47.544;7.586;2022-08-18T11:46:26;4.75;;;4.20;;
34290;SDS011;20553;47.544;7.586;2022-08-18T11:51:54;5.70;;;5.15;;
34290;SDS011;20553;47.544;7.586;2022-08-18T12:03:11;7.47;;;6.83;;
34290;SDS011;20553;47.544;7.586;2022-08-18T12:08:34;6.47;;;5.88;;
34290;SDS011;20553;47.544;7.586;2022-08-18T12:14:08;6.50;;;5.90;;
34290;SDS011;20553;47.544;7.586;2022-08-18T12:19:36;8.02;;;7.32;;
34290;SDS011;20553;47.544;7.586;2022-08-18T12:24:41;6.60;;;6.05;;
34290;SDS011;20553;47.544;7.586;2022-08-18T12:29:54;7.47;;;6.40;;
34290;SDS011;20553;47.544;7.586;2022-08-18T12:34:59;7.05;;;6.35;;
34290;SDS011;20553;47.544;7.586;2022-08-18T12:40:11;6.50;;;5.90;;
34290;SDS011;20553;47.544;7.586;2022-08-18T12:45:18;5.47;;;5.00;;
34290;SDS011;20553;47.544;7.586;2022-08-18T12:50:22;6.23;;;5.60;;
34290;SDS011;20553;47.544;7.586;2022-08-18T12:55:35;5.32;;;4.82;;
34290;SDS011;20553;47.544;7.586;2022-08-18T13:00:48;5.30;;;4.90;;
34290;SDS011;20553;47.544;7.586;2022-08-18T13:05:53;5.38;;;4.88;;
34290;SDS011;20553;47.544;7.586;2022-08-18T13:11:01;5.40;;;4.82;;
34290;SDS011;20553;47.544;7.586;2022-08-18T13:16:24;4.67;;;4.27;;
34290;SDS011;20553;47.544;7.586;2022-08-18T13:21:53;4.80;;;4.40;;
34290;SDS011;20553;47.544;7.586;2022-08-18T13:26:58;5.32;;;4.45;;
34290;SDS011;20553;47.544;7.586;2022-08-18T13:32:21;4.13;;;3.83;;
34290;SDS011;20553;47.544;7.586;2022-08-18T13:37:29;4.25;;;3.72;;
34290;SDS011;20553;47.544;7.586;2022-08-18T13:42:44;4.07;;;3.70;;
34290;SDS011;20553;47.544;7.586;2022-08-18T13:47:58;3.97;;;3.58;;
34290;SDS011;20553;47.544;7.586;2022-08-18T13:53:06;3.70;;;3.40;;
34290;SDS011;20553;47.544;7.586;2022-08-18T13:58:20;3.55;;;3.25;;
34290;SDS011;20553;47.544;7.586;2022-08-18T14:03:27;4.18;;;3.88;;
34290;SDS011;20553;47.544;7.586;2022-08-18T14:08:49;4.18;;;3.78;;
34290;SDS011;20553;47.544;7.586;2022-08-18T14:13:59;4.03;;;3.73;;
34290;SDS011;20553;47.544;7.586;2022-08-18T14:19:09;3.90;;;3.60;;
34290;SDS011;20553;47.544;7.586;2022-08-18T14:24:31;3.70;;;3.40;;
34290;SDS011;20553;47.544;7.586;2022-08-18T14:29:59;4.03;;;3.73;;
34290;SDS011;20553;47.544;7.586;2022-08-18T14:35:11;4.38;;;4.07;;
34290;SDS011;20553;47.544;7.586;2022-08-18T14:40:42;4.35;;;3.95;;
34290;SDS011;20553;47.544;7.586;2022-08-18T14:45:49;5.40;;;4.20;;
34290;SDS011;20553;47.544;7.586;2022-08-18T14:51:01;4.30;;;4.00;;
34290;SDS011;20553;47.544;7.586;2022-08-18T14:56:11;4.53;;;4.13;;
34290;SDS011;20553;47.544;7.586;2022-08-18T15:01:19;4.63;;;4.23;;
34290;SDS011;20553;47.544;7.586;2022-08-18T15:11:58;4.70;;;4.20;;
34290;SDS011;20553;47.544;7.586;2022-08-18T15:17:04;4.88;;;4.40;;
34290;SDS011;20553;47.544;7.586;2022-08-18T15:22:20;5.70;;;5.18;;
34290;SDS011;20553;47.544;7.586;2022-08-18T15:27:51;5.77;;;5.27;;
34290;SDS011;20553;47.544;7.586;2022-08-18T15:33:00;5.65;;;5.15;;
34290;SDS011;20553;47.544;7.586;2022-08-18T15:38:15;5.20;;;4.70;;
34290;SDS011;20553;47.544;7.586;2022-08-18T15:43:27;5.40;;;4.90;;
34290;SDS011;20553;47.544;7.586;2022-08-18T15:48:47;4.23;;;3.83;;
34290;SDS011;20553;47.544;7.586;2022-08-18T15:53:57;5.00;;;4.30;;
34290;SDS011;20553;47.544;7.586;2022-08-18T15:59:15;5.03;;;4.53;;
34290;SDS011;20553;47.544;7.586;2022-08-18T16:04:23;5.45;;;4.78;;
34290;SDS011;20553;47.544;7.586;2022-08-18T16:09:30;5.15;;;4.65;;
34290;SDS011;20553;47.544;7.586;2022-08-18T16:14:35;4.82;;;4.43;;
34290;SDS011;20553;47.544;7.586;2022-08-18T16:19:42;4.82;;;4.35;;
34290;SDS011;20553;47.544;7.586;2022-08-18T16:24:49;4.60;;;4.20;;
34290;SDS011;20553;47.544;7.586;2022-08-18T16:29:59;5.70;;;5.10;;
34290;SDS011;20553;47.544;7.586;2022-08-18T16:35:19;5.00;;;4.53;;
34290;SDS011;20553;47.544;7.586;2022-08-18T16:40:27;5.20;;;4.70;;
34290;SDS011;20553;47.544;7.586;2022-08-18T16:45:35;4.78;;;4.38;;
34290;SDS011;20553;47.544;7.586;2022-08-18T16:50:41;5.10;;;4.70;;
34290;SDS011;20553;47.544;7.586;2022-08-18T16:55:49;5.72;;;5.18;;
34290;SDS011;20553;47.544;7.586;2022-08-18T17:00:53;4.97;;;4.57;;
34290;SDS011;20553;47.544;7.586;2022-08-18T17:06:20;5.40;;;4.97;;
34290;SDS011;20553;47.544;7.586;2022-08-18T17:11:31;5.78;;;5.22;;
34290;SDS011;20553;47.544;7.586;2022-08-18T17:16:49;4.80;;;4.40;;
34290;SDS011;20553;47.544;7.586;2022-08-18T17:21:56;5.70;;;4.85;;
34290;SDS011;20553;47.544;7.586;2022-08-18T17:27:04;5.10;;;4.70;;
34290;SDS011;20553;47.544;7.586;2022-08-18T17:32:30;5.38;;;4.88;;
34290;SDS011;20553;47.544;7.586;2022-08-18T17:37:44;5.00;;;4.57;;
34290;SDS011;20553;47.544;7.586;2022-08-18T17:42:55;5.07;;;4.63;;
34290;SDS011;20553;47.544;7.586;2022-08-18T17:48:02;5.27;;;4.87;;
34290;SDS011;20553;47.544;7.586;2022-08-18T17:53:13;5.28;;;4.88;;
34290;SDS011;20553;47.544;7.586;2022-08-18T17:58:22;6.10;;;5.50;;
34290;SDS011;20553;47.544;7.586;2022-08-18T18:03:41;6.53;;;6.03;;
34290;SDS011;20553;47.544;7.586;2022-08-18T18:08:48;5.78;;;5.28;;
34290;SDS011;20553;47.544;7.586;2022-08-18T18:14:20;6.65;;;6.03;;
34290;SDS011;20553;47.544;7.586;2022-08-18T18:19:28;6.38;;;5.82;;
34290;SDS011;20553;47.544;7.586;2022-08-18T18:24:35;6.05;;;5.55;;
34290;SDS011;20553;47.544;7.586;2022-08-18T18:29:50;6.20;;;5.35;;
34290;SDS011;20553;47.544;7.586;2022-08-18T18:40:31;5.93;;;5.43;;
34290;SDS011;20553;47.544;7.586;2022-08-18T18:45:39;6.40;;;5.70;;
34290;SDS011;20553;47.544;7.586;2022-08-18T18:50:47;5.87;;;5.37;;
34290;SDS011;20553;47.544;7.586;2022-08-18T18:56:15;5.80;;;5.35;;
34290;SDS011;20553;47.544;7.586;2022-08-18T19:01:30;5.30;;;4.88;;
34290;SDS011;20553;47.544;7.586;2022-08-18T19:06:48;5.82;;;5.07;;
34290;SDS011;20553;47.544;7.586;2022-08-18T19:12:03;5.30;;;4.80;;
34290;SDS011;20553;47.544;7.586;2022-08-18T19:17:21;5.35;;;4.88;;
34290;SDS011;20553;47.544;7.586;2022-08-18T19:22:38;5.72;;;5.18;;
34290;SDS011;20553;47.544;7.586;2022-08-18T19:27:50;6.37;;;5.87;;
34290;SDS011;20553;47.544;7.586;2022-08-18T19:33:07;6.55;;;5.95;;
34290;SDS011;20553;47.544;7.586;2022-08-18T19:38:28;6.70;;;6.00;;
34290;SDS011;20553;47.544;7.586;2022-08-18T19:43:44;7.43;;;6.72;;
34290;SDS011;20553;47.544;7.586;2022-08-18T19:49:01;7.10;;;6.40;;
34290;SDS011;20553;47.544;7.586;2022-08-18T19:54:25;7.43;;;6.73;;
34290;SDS011;20553;47.544;7.586;2022-08-18T20:00:15;8.43;;;7.63;;
34290;SDS011;20553;47.544;7.586;2022-08-18T20:05:33;7.35;;;6.72;;
34290;SDS011;20553;47.544;7.586;2022-08-18T20:11:02;9.05;;;8.25;;
34290;SDS011;20553;47.544;7.586;2022-08-18T20:17:04;8.52;;;7.82;;
34290;SDS011;20553;47.544;7.586;2022-08-18T20:22:34;8.97;;;8.07;;
34290;SDS011;20553;47.544;7.586;2022-08-18T20:29:47;10.57;;;9.57;;
34290;SDS011;20553;47.544;7.586;2022-08-18T20:36:35;10.00;;;9.00;;
34290;SDS011;20553;47.544;7.586;2022-08-18T20:41:45;8.88;;;8.10;;
34290;SDS011;20553;47.544;7.586;2022-08-18T20:46:56;9.87;;;8.93;;
34290;SDS011;20553;47.544;7.586;2022-08-18T20:52:28;10.20;;;9.30;;
34290;SDS011;20553;47.544;7.586;2022-08-18T21:06:15;9.27;;;8.38;;
34290;SDS011;20553;47.544;7.586;2022-08-18T21:19:22;10.82;;;9.60;;
34290;SDS011;20553;47.544;7.586;2022-08-18T21:24:30;11.25;;;10.25;;
34290;SDS011;20553;47.544;7.586;2022-08-18T21:29:40;10.60;;;9.50;;
34290;SDS011;20553;47.544;7.586;2022-08-18T21:34:53;10.25;;;9.25;;
34290;SDS011;20553;47.544;7.586;2022-08-18T21:40:01;9.80;;;9.00;;
34290;SDS011;20553;47.544;7.586;2022-08-18T21:45:16;11.48;;;10.38;;
34290;SDS011;20553;47.544;7.586;2022-08-18T21:50:27;10.33;;;9.33;;
34290;SDS011;20553;47.544;7.586;2022-08-18T21:55:34;11.40;;;10.20;;
34290;SDS011;20553;47.544;7.586;2022-08-18T22:00:45;12.70;;;11.38;;
34290;SDS011;20553;47.544;7.586;2022-08-18T22:06:16;8.00;;;7.20;;
34290;SDS011;20553;47.544;7.586;2022-08-18T22:11:37;5.78;;;5.20;;
34290;SDS011;20553;47.544;7.586;2022-08-18T22:17:24;4.53;;;4.05;;
34290;SDS011;20553;47.544;7.586;2022-08-18T22:22:33;5.07;;;4.57;;
34290;SDS011;20553;47.544;7.586;2022-08-18T22:27:55;4.80;;;4.20;;
34290;SDS011;20553;47.544;7.586;2022-08-18T22:33:03;5.88;;;5.28;;
34290;SDS011;20553;47.544;7.586;2022-08-18T22:38:10;7.35;;;6.10;;
34290;SDS011;20553;47.544;7.586;2022-08-18T22:43:16;6.27;;;5.53;;
34290;SDS011;20553;47.544;7.586;2022-08-18T22:48:22;7.43;;;5.85;;
34290;SDS011;20553;47.544;7.586;2022-08-18T22:53:28;6.60;;;5.43;;
34290;SDS011;20553;47.544;7.586;2022-08-18T22:58:32;6.50;;;5.60;;
34290;SDS011;20553;47.544;7.586;2022-08-18T23:03:41;6.68;;;5.50;;
34290;SDS011;20553;47.544;7.586;2022-08-18T23:08:46;5.72;;;4.90;;
34290;SDS011;20553;47.544;7.586;2022-08-18T23:13:55;5.23;;;4.67;;
34290;SDS011;20553;47.544;7.586;2022-08-18T23:19:03;5.20;;;4.70;;
34290;SDS011;20553;47.544;7.586;2022-08-18T23:24:08;6.20;;;5.60;;
34290;SDS011;20553;47.544;7.586;2022-08-18T23:29:16;6.30;;;5.70;;
34290;SDS011;20553;47.544;7.586;2022-08-18T23:34:24;6.13;;;5.43;;
34290;SDS011;20553;47.544;7.586;2022-08-18T23:39:29;6.68;;;5.53;;
34290;SDS011;20553;47.544;7.586;2022-08-18T23:44:36;6.80;;;5.75;;
34290;SDS011;20553;47.544;7.586;2022-08-18T23:49:41;8.13;;;6.40;;
34290;SDS011;20553;47.544;7.586;2022-08-18T23:54:46;5.72;;;5.13;;
34290;SDS011;20553;47.544;7.586;2022-08-18T23:59:50;6.20;;;5.60;;
